Time;durP1;ratioP1;P1;durP2;ratioP2;P2;SDS_P1;SDS_P2;PMS_P1;PMS_P2;Temp;Humidity;BMP_temperature;BMP_pressure;BME280_temperature;BME280_humidity;BME280_pressure;Samples;Min_cycle;Max_cycle;Signal;HPM_P1;HPM_P2
2021/09/22 00:01:20;;;;;;;9.48;2.00;;;;;;;;;;4954373;28;20065;-78
2021/09/22 00:03:47;;;;;;;12.95;2.28;;;;;;;;;;4955625;28;20129;-78
2021/09/22 00:06:15;;;;;;;9.02;1.65;;;;;;;;;;4955647;28;20175;-78
2021/09/22 00:08:42;;;;;;;10.02;1.83;;;;;;;;;;4975120;28;20037;-78
2021/09/22 00:11:11;;;;;;;13.40;1.88;;;;;;;;;;4959011;28;20475;-78
2021/09/22 00:13:40;;;;;;;9.82;2.03;;;;;;;;;;4944224;28;20185;-80
2021/09/22 00:16:07;;;;;;;11.05;1.85;;;;;;;;;;4954284;28;20053;-80
2021/09/22 00:18:35;;;;;;;11.52;1.88;;;;;;;;;;4966157;28;20077;-80
2021/09/22 00:21:03;;;;;;;11.02;2.35;;;;;;;;;;4959547;28;20086;-80
2021/09/22 00:23:30;;;;;;;14.75;2.10;;;;;;;;;;4959283;28;20097;-80
2021/09/22 00:25:58;;;;;;;8.05;1.75;;;;;;;;;;4969894;28;20467;-79
2021/09/22 00:28:26;;;;;;;9.93;2.00;;;;;;;;;;4945051;28;20038;-80
2021/09/22 00:30:55;;;;;;;9.40;1.75;;;;;;;;;;4956665;28;20054;-79
2021/09/22 00:33:23;;;;;;;14.35;2.13;;;;;;;;;;4957282;28;20026;-80
2021/09/22 00:35:51;;;;;;;11.70;1.90;;;;;;;;;;4962944;28;20038;-80
2021/09/22 00:38:18;;;;;;;10.77;2.05;;;;;;;;;;4963192;28;20042;-80
2021/09/22 00:40:48;;;;;;;12.32;2.05;;;;;;;;;;4965460;28;21395;-80
2021/09/22 00:43:19;;;;;;;12.43;1.85;;;;;;;;;;4980532;28;20050;-80
2021/09/22 00:45:47;;;;;;;12.73;2.10;;;;;;;;;;4968946;28;20173;-81
2021/09/22 00:48:17;;;;;;;8.15;1.60;;;;;;;;;;4963758;28;20053;-80
2021/09/22 00:50:49;;;;;;;8.32;1.65;;;;;;;;;;4969930;28;20042;-79
2021/09/22 00:53:18;;;;;;;10.43;1.92;;;;;;;;;;4963177;28;20529;-80
2021/09/22 00:55:46;;;;;;;11.35;1.73;;;;;;;;;;4944767;28;20050;-79
2021/09/22 00:58:15;;;;;;;8.75;1.70;;;;;;;;;;4957037;28;20038;-80
2021/09/22 01:00:42;;;;;;;7.93;1.63;;;;;;;;;;4968908;28;20029;-79
2021/09/22 01:03:09;;;;;;;10.55;2.20;;;;;;;;;;4960669;28;20109;-79
2021/09/22 01:05:35;;;;;;;12.15;1.73;;;;;;;;;;4965078;28;20042;-79
2021/09/22 01:08:05;;;;;;;;;;;;;;;;;;4960460;28;20094;-78
2021/09/22 01:10:33;;;;;;;9.68;1.92;;;;;;;;;;4964998;28;19929;-80
2021/09/22 01:13:01;;;;;;;11.75;1.60;;;;;;;;;;4968691;28;20034;-79
2021/09/22 01:15:35;;;;;;;10.45;1.85;;;;;;;;;;4963645;28;20035;-79
2021/09/22 01:18:03;;;;;;;9.13;1.80;;;;;;;;;;4957940;28;20569;-78
2021/09/22 01:20:32;;;;;;;9.50;1.65;;;;;;;;;;4964776;28;20042;-79
2021/09/22 01:23:00;;;;;;;9.25;1.73;;;;;;;;;;4959015;28;21009;-79
2021/09/22 01:25:28;;;;;;;8.57;1.70;;;;;;;;;;4958696;28;20038;-79
2021/09/22 01:27:58;;;;;;;8.73;2.10;;;;;;;;;;4966303;28;20026;-81
2021/09/22 01:30:27;;;;;;;8.55;1.60;;;;;;;;;;4976888;28;20587;-78
2021/09/22 01:32:57;;;;;;;8.20;1.70;;;;;;;;;;4962922;28;20506;-78
2021/09/22 01:35:27;;;;;;;10.18;2.03;;;;;;;;;;4955116;28;20030;-78
2021/09/22 01:37:53;;;;;;;9.52;1.48;;;;;;;;;;4962631;28;20190;-78
2021/09/22 01:40:21;;;;;;;14.38;1.60;;;;;;;;;;4960631;28;20046;-78
2021/09/22 01:42:49;;;;;;;10.13;1.58;;;;;;;;;;4953974;28;20030;-78
2021/09/22 01:45:16;;;;;;;7.18;1.38;;;;;;;;;;4970862;28;20056;-80
2021/09/22 01:47:44;;;;;;;7.35;1.40;;;;;;;;;;4967223;28;20046;-78
2021/09/22 01:50:17;;;;;;;7.90;1.60;;;;;;;;;;4957479;28;20097;-78
2021/09/22 01:52:44;;;;;;;5.65;1.20;;;;;;;;;;4946006;28;20629;-78
2021/09/22 01:55:13;;;;;;;10.38;2.13;;;;;;;;;;4940306;28;20061;-78
2021/09/22 01:57:42;;;;;;;9.70;1.70;;;;;;;;;;4963683;28;20401;-78
2021/09/22 02:00:10;;;;;;;7.07;1.52;;;;;;;;;;4974469;28;20038;-78
2021/09/22 02:02:38;;;;;;;10.75;1.75;;;;;;;;;;4957925;28;20172;-79
2021/09/22 02:05:08;;;;;;;6.47;1.30;;;;;;;;;;4957445;28;20193;-80
2021/09/22 02:07:35;;;;;;;10.23;1.80;;;;;;;;;;4963853;28;20042;-78
2021/09/22 02:10:04;;;;;;;8.63;1.70;;;;;;;;;;4951857;28;20038;-78
2021/09/22 02:12:31;;;;;;;6.40;1.50;;;;;;;;;;4961354;28;20502;-81
2021/09/22 02:14:59;;;;;;;11.18;1.85;;;;;;;;;;4957101;28;20030;-78
2021/09/22 02:17:28;;;;;;;9.93;1.90;;;;;;;;;;4960386;28;20092;-78
2021/09/22 02:19:55;;;;;;;11.00;1.98;;;;;;;;;;4980278;28;20035;-77
2021/09/22 02:22:22;;;;;;;9.98;1.95;;;;;;;;;;4957880;28;20046;-78
2021/09/22 02:24:49;;;;;;;17.50;2.05;;;;;;;;;;4959886;28;20033;-79
2021/09/22 02:27:21;;;;;;;8.77;1.60;;;;;;;;;;4957582;28;20113;-78
2021/09/22 02:29:50;;;;;;;8.13;1.70;;;;;;;;;;4955613;28;20031;-78
2021/09/22 02:32:17;;;;;;;11.20;1.58;;;;;;;;;;4936588;28;20407;-79
2021/09/22 02:34:47;;;;;;;9.10;1.63;;;;;;;;;;4945464;28;20571;-79
2021/09/22 02:37:14;;;;;;;8.35;1.60;;;;;;;;;;4936656;28;20098;-79
2021/09/22 02:39:41;;;;;;;7.30;1.38;;;;;;;;;;4940832;28;20082;-79
2021/09/22 02:42:09;;;;;;;7.18;1.52;;;;;;;;;;4938995;28;20574;-79
2021/09/22 02:44:38;;;;;;;8.02;1.35;;;;;;;;;;4954169;28;20130;-79
2021/09/22 02:47:06;;;;;;;10.50;1.92;;;;;;;;;;4938210;28;20115;-79
2021/09/22 02:49:35;;;;;;;10.00;1.75;;;;;;;;;;4948354;28;20038;-78
2021/09/22 02:52:03;;;;;;;9.95;1.88;;;;;;;;;;4953063;28;20118;-79
2021/09/22 02:54:30;;;;;;;7.32;1.55;;;;;;;;;;4938707;28;20031;-79
2021/09/22 02:56:58;;;;;;;6.93;1.58;;;;;;;;;;4975531;28;20116;-79
2021/09/22 02:59:27;;;;;;;9.07;1.70;;;;;;;;;;4956930;28;20047;-79
2021/09/22 03:01:56;;;;;;;10.93;2.00;;;;;;;;;;4965134;28;20049;-79
2021/09/22 03:04:25;;;;;;;8.63;1.63;;;;;;;;;;4949324;28;20056;-79
2021/09/22 03:06:52;;;;;;;7.20;1.42;;;;;;;;;;4966775;28;20502;-79
2021/09/22 03:09:20;;;;;;;10.32;1.40;;;;;;;;;;4959011;28;20035;-79
2021/09/22 03:11:48;;;;;;;7.90;1.50;;;;;;;;;;4959065;28;20129;-79
2021/09/22 03:14:15;;;;;;;8.20;1.48;;;;;;;;;;4953472;28;20038;-78
2021/09/22 03:16:42;;;;;;;6.20;1.30;;;;;;;;;;4949467;28;20149;-78
2021/09/22 03:19:09;;;;;;;5.10;1.30;;;;;;;;;;4955767;28;20107;-78
2021/09/22 03:21:37;;;;;;;12.10;1.83;;;;;;;;;;4959504;28;20038;-78
2021/09/22 03:24:05;;;;;;;7.07;1.27;;;;;;;;;;4971513;28;20081;-79
2021/09/22 03:26:33;;;;;;;7.50;1.58;;;;;;;;;;4959644;28;20512;-79
2021/09/22 03:29:02;;;;;;;7.70;1.48;;;;;;;;;;4974144;28;20042;-80
2021/09/22 03:31:29;;;;;;;11.02;1.70;;;;;;;;;;4960616;28;20038;-80
2021/09/22 03:33:58;;;;;;;6.35;1.30;;;;;;;;;;4974797;28;20085;-80
2021/09/22 03:36:29;;;;;;;9.10;1.70;;;;;;;;;;4961206;28;20045;-80
2021/09/22 03:38:57;;;;;;;13.15;1.52;;;;;;;;;;4961534;28;20093;-80
2021/09/22 03:41:25;;;;;;;6.72;1.30;;;;;;;;;;4955677;28;20031;-80
2021/09/22 03:43:52;;;;;;;7.70;1.35;;;;;;;;;;4965395;28;20062;-79
2021/09/22 03:46:19;;;;;;;9.68;1.85;;;;;;;;;;4954565;28;20069;-78
2021/09/22 03:48:46;;;;;;;6.53;1.27;;;;;;;;;;4959096;28;20047;-79
2021/09/22 03:51:14;;;;;;;6.57;1.23;;;;;;;;;;4956909;28;20026;-78
2021/09/22 03:53:41;;;;;;;5.13;1.30;;;;;;;;;;4958690;28;20133;-78
2021/09/22 03:56:12;;;;;;;7.72;1.38;;;;;;;;;;4969453;28;20341;-78
2021/09/22 03:58:38;;;;;;;8.05;1.58;;;;;;;;;;4961944;28;20097;-78
2021/09/22 04:01:04;;;;;;;;;;;;;;;;;;4971660;28;20088;-78
2021/09/22 04:03:31;;;;;;;8.52;1.40;;;;;;;;;;4960619;28;20603;-78
2021/09/22 04:06:08;;;;;;;13.20;1.70;;;;;;;;;;4962188;28;20038;-78
2021/09/22 04:08:35;;;;;;;7.30;1.50;;;;;;;;;;4963544;28;20125;-78
2021/09/22 04:11:04;;;;;;;11.23;1.88;;;;;;;;;;4956327;28;20049;-78
2021/09/22 04:13:31;;;;;;;9.63;1.85;;;;;;;;;;4960819;28;20030;-78
2021/09/22 04:15:58;;;;;;;5.85;1.65;;;;;;;;;;4958192;28;20054;-78
2021/09/22 04:18:27;;;;;;;6.53;1.35;;;;;;;;;;4959987;28;20053;-78
2021/09/22 04:20:56;;;;;;;11.10;1.80;;;;;;;;;;4958160;28;20617;-79
2021/09/22 04:23:23;;;;;;;7.63;1.50;;;;;;;;;;4957509;28;20436;-78
2021/09/22 04:25:52;;;;;;;6.03;1.40;;;;;;;;;;4972107;28;20734;-79
2021/09/22 04:28:20;;;;;;;8.15;1.40;;;;;;;;;;4943327;28;20400;-79
2021/09/22 04:30:47;;;;;;;7.45;1.42;;;;;;;;;;4953036;28;20030;-78
2021/09/22 04:33:14;;;;;;;7.97;1.55;;;;;;;;;;4955740;28;20034;-81
2021/09/22 04:35:45;;;;;;;7.32;1.60;;;;;;;;;;4963889;28;20115;-79
2021/09/22 04:38:12;;;;;;;9.25;2.03;;;;;;;;;;4959236;28;20088;-79
2021/09/22 04:40:41;;;;;;;9.75;1.60;;;;;;;;;;4960281;28;20038;-79
2021/09/22 04:43:12;;;;;;;8.65;1.70;;;;;;;;;;4957023;28;20035;-79
2021/09/22 04:45:42;;;;;;;8.90;1.40;;;;;;;;;;4975200;28;20038;-78
2021/09/22 04:48:09;;;;;;;5.90;1.38;;;;;;;;;;4951273;28;20043;-79
2021/09/22 04:50:39;;;;;;;7.60;1.52;;;;;;;;;;4957670;28;20775;-79
2021/09/22 04:53:15;;;;;;;9.93;1.60;;;;;;;;;;4956930;28;20456;-79
2021/09/22 04:55:42;;;;;;;11.02;2.08;;;;;;;;;;4973240;28;20070;-79
2021/09/22 04:58:13;;;;;;;6.97;1.40;;;;;;;;;;4972785;28;20444;-79
2021/09/22 05:00:40;;;;;;;11.38;1.83;;;;;;;;;;4947677;28;20117;-79
2021/09/22 05:03:07;;;;;;;9.18;1.67;;;;;;;;;;4945615;28;20026;-79
2021/09/22 05:05:34;;;;;;;6.55;1.40;;;;;;;;;;4963532;28;20136;-80
2021/09/22 05:08:05;;;;;;;8.27;1.40;;;;;;;;;;4956916;28;20096;-79
2021/09/22 05:10:33;;;;;;;6.80;1.52;;;;;;;;;;4962217;28;20848;-79
2021/09/22 05:13:00;;;;;;;10.23;1.60;;;;;;;;;;4974695;28;20461;-79
2021/09/22 05:15:27;;;;;;;5.50;1.30;;;;;;;;;;4962096;28;20022;-79
2021/09/22 05:17:54;;;;;;;7.22;1.60;;;;;;;;;;4961958;28;20085;-79
2021/09/22 05:20:23;;;;;;;9.93;1.40;;;;;;;;;;4970676;28;20046;-80
2021/09/22 05:22:52;;;;;;;8.82;1.67;;;;;;;;;;4943330;28;20139;-79
2021/09/22 05:25:21;;;;;;;9.35;1.55;;;;;;;;;;4961372;28;21023;-80
2021/09/22 05:27:49;;;;;;;10.52;2.10;;;;;;;;;;4976026;28;20034;-79
2021/09/22 05:30:18;;;;;;;7.95;1.60;;;;;;;;;;4977215;28;20113;-80
2021/09/22 05:32:44;;;;;;;8.52;1.90;;;;;;;;;;4977686;28;20174;-79
2021/09/22 05:35:11;;;;;;;7.53;1.70;;;;;;;;;;4956389;28;20096;-80
2021/09/22 05:37:39;;;;;;;11.10;2.58;;;;;;;;;;4963758;28;20518;-79
2021/09/22 05:40:09;;;;;;;11.48;2.17;;;;;;;;;;4961095;28;20038;-79
2021/09/22 05:42:37;;;;;;;13.38;5.22;;;;;;;;;;4975477;28;20487;-79
2021/09/22 05:45:14;;;;;;;6.57;1.70;;;;;;;;;;4957847;28;20195;-80
2021/09/22 05:47:41;;;;;;;13.32;2.78;;;;;;;;;;4965918;28;20053;-79
2021/09/22 05:50:09;;;;;;;9.70;1.67;;;;;;;;;;4971676;28;20065;-79
2021/09/22 05:52:38;;;;;;;9.10;1.35;;;;;;;;;;4964453;28;20057;-80
2021/09/22 05:55:08;;;;;;;11.13;1.90;;;;;;;;;;4957139;28;20034;-80
2021/09/22 05:57:42;;;;;;;10.50;1.88;;;;;;;;;;4959953;28;20080;-79
2021/09/22 06:00:10;;;;;;;7.93;1.63;;;;;;;;;;4974377;28;20121;-79
2021/09/22 06:02:39;;;;;;;11.13;1.60;;;;;;;;;;4959312;28;20040;-80
2021/09/22 06:05:09;;;;;;;10.60;1.90;;;;;;;;;;4959494;28;20039;-80
2021/09/22 06:07:37;;;;;;;8.10;1.90;;;;;;;;;;4963082;28;20049;-80
2021/09/22 06:10:06;;;;;;;8.63;1.75;;;;;;;;;;4967116;28;20053;-80
2021/09/22 06:12:33;;;;;;;7.88;2.00;;;;;;;;;;4978933;28;20027;-80
2021/09/22 06:15:00;;;;;;;10.43;2.72;;;;;;;;;;4957111;28;20053;-78
2021/09/22 06:17:28;;;;;;;8.50;2.17;;;;;;;;;;4956110;28;20048;-80
2021/09/22 06:19:56;;;;;;;11.80;2.30;;;;;;;;;;4962936;28;20038;-78
2021/09/22 06:22:24;;;;;;;9.15;1.75;;;;;;;;;;4956668;28;20063;-79
2021/09/22 06:24:58;;;;;;;11.27;1.92;;;;;;;;;;4959206;28;20072;-79
2021/09/22 06:27:25;;;;;;;8.95;1.98;;;;;;;;;;4958754;28;20038;-81
2021/09/22 06:29:52;;;;;;;7.35;1.50;;;;;;;;;;4957863;28;20035;-79
2021/09/22 06:32:19;;;;;;;11.27;1.77;;;;;;;;;;4954487;28;20038;-79
2021/09/22 06:34:46;;;;;;;8.15;1.60;;;;;;;;;;4958557;28;20112;-79
2021/09/22 06:37:13;;;;;;;10.35;1.80;;;;;;;;;;4955028;28;20052;-78
2021/09/22 06:39:43;;;;;;;13.75;1.98;;;;;;;;;;4958227;28;20755;-80
2021/09/22 06:42:09;;;;;;;12.48;2.20;;;;;;;;;;4958767;28;20513;-80
2021/09/22 06:44:37;;;;;;;11.88;1.73;;;;;;;;;;4949474;28;20058;-80
2021/09/22 06:47:05;;;;;;;7.78;1.95;;;;;;;;;;4954803;28;20826;-80
2021/09/22 06:49:33;;;;;;;12.73;1.70;;;;;;;;;;4957112;28;20105;-80
2021/09/22 06:52:00;;;;;;;14.77;2.00;;;;;;;;;;4970419;28;20847;-79
2021/09/22 06:54:27;;;;;;;7.78;1.50;;;;;;;;;;4975917;28;20041;-79
2021/09/22 06:56:56;;;;;;;13.10;1.33;;;;;;;;;;4957487;28;20136;-79
2021/09/22 06:59:25;;;;;;;8.98;1.33;;;;;;;;;;4956204;28;20041;-78
2021/09/22 07:01:53;;;;;;;12.35;1.98;;;;;;;;;;4963201;28;20038;-77
2021/09/22 07:04:22;;;;;;;10.88;1.60;;;;;;;;;;4955675;28;21072;-77
2021/09/22 07:06:51;;;;;;;10.85;1.75;;;;;;;;;;4971990;28;20097;-77
2021/09/22 07:09:20;;;;;;;9.70;1.80;;;;;;;;;;4955025;28;20650;-79
2021/09/22 07:11:46;;;;;;;7.38;1.50;;;;;;;;;;4956951;28;20034;-77
2021/09/22 07:14:13;;;;;;;;;;;;;;;;;;4959245;28;20544;-78
2021/09/22 07:16:39;;;;;;;;;;;;;;;;;;4957826;28;20049;-79
2021/09/22 07:19:07;;;;;;;10.10;1.77;;;;;;;;;;4946192;28;19950;-77
2021/09/22 07:21:36;;;;;;;12.05;1.70;;;;;;;;;;4960023;28;20175;-79
2021/09/22 07:24:07;;;;;;;9.65;1.75;;;;;;;;;;4953985;28;21260;-79
2021/09/22 07:26:39;;;;;;;10.30;1.73;;;;;;;;;;4940935;28;20574;-78
2021/09/22 07:29:10;;;;;;;9.32;1.85;;;;;;;;;;4918385;28;20042;-77
2021/09/22 07:31:38;;;;;;;12.57;2.08;;;;;;;;;;4911603;28;20045;-77
2021/09/22 07:34:07;;;;;;;8.15;1.73;;;;;;;;;;4939124;28;20038;-78
2021/09/22 07:36:35;;;;;;;8.30;1.48;;;;;;;;;;4922747;28;20043;-78
2021/09/22 07:39:03;;;;;;;9.75;1.55;;;;;;;;;;4907994;28;20424;-78
2021/09/22 07:41:33;;;;;;;8.98;1.50;;;;;;;;;;4928377;28;20043;-78
2021/09/22 07:44:03;;;;;;;9.73;1.67;;;;;;;;;;4933954;28;20130;-78
2021/09/22 07:46:32;;;;;;;11.13;1.60;;;;;;;;;;4938795;28;20035;-78
2021/09/22 07:49:00;;;;;;;13.02;1.50;;;;;;;;;;4923766;28;20054;-78
2021/09/22 07:51:29;;;;;;;9.52;1.40;;;;;;;;;;4937559;28;20038;-77
2021/09/22 07:53:55;;;;;;;8.43;1.75;;;;;;;;;;4926233;28;20043;-77
2021/09/22 07:56:24;;;;;;;7.82;1.60;;;;;;;;;;4921222;28;20039;-77
2021/09/22 07:58:51;;;;;;;11.20;1.63;;;;;;;;;;4918872;28;20039;-77
2021/09/22 08:01:20;;;;;;;7.93;2.03;;;;;;;;;;4917929;28;20137;-78
2021/09/22 08:03:47;;;;;;;9.43;2.28;;;;;;;;;;4937208;28;20046;-77
2021/09/22 08:06:14;;;;;;;10.40;3.25;;;;;;;;;;4953176;28;20038;-77
2021/09/22 08:08:41;;;;;;;13.20;3.10;;;;;;;;;;4944054;28;20905;-79
2021/09/22 08:11:08;;;;;;;17.48;4.20;;;;;;;;;;4954577;28;20049;-78
2021/09/22 08:13:35;;;;;;;10.60;3.75;;;;;;;;;;4949868;28;20090;-78
2021/09/22 08:16:04;;;;;;;11.50;3.60;;;;;;;;;;4939830;28;20042;-78
2021/09/22 08:18:31;;;;;;;10.43;2.90;;;;;;;;;;4955715;28;20774;-78
2021/09/22 08:20:59;;;;;;;15.20;3.35;;;;;;;;;;4960668;28;20065;-78
2021/09/22 08:23:26;;;;;;;10.57;2.75;;;;;;;;;;4947300;28;20046;-77
2021/09/22 08:25:54;;;;;;;14.20;2.67;;;;;;;;;;4939560;28;20516;-77
2021/09/22 08:28:22;;;;;;;12.32;2.33;;;;;;;;;;4958444;28;20066;-77
2021/09/22 08:30:49;;;;;;;9.65;2.30;;;;;;;;;;4954550;28;20034;-77
2021/09/22 08:33:16;;;;;;;12.55;2.75;;;;;;;;;;4952268;28;20684;-77
2021/09/22 08:35:43;;;;;;;11.65;2.95;;;;;;;;;;4964641;28;20042;-78
2021/09/22 08:38:10;;;;;;;11.82;3.42;;;;;;;;;;4940697;28;20133;-79
2021/09/22 08:40:40;;;;;;;17.40;5.55;;;;;;;;;;4961892;28;20042;-76
2021/09/22 08:43:06;;;;;;;12.85;5.38;;;;;;;;;;4961851;28;20121;-78
2021/09/22 08:45:35;;;;;;;11.57;4.03;;;;;;;;;;4960089;28;20069;-77
2021/09/22 08:48:04;;;;;;;14.43;4.22;;;;;;;;;;4936039;28;20129;-80
2021/09/22 08:50:32;;;;;;;12.52;3.85;;;;;;;;;;4931133;28;20134;-77
2021/09/22 08:53:01;;;;;;;12.10;3.80;;;;;;;;;;4909846;28;20322;-76
2021/09/22 08:55:31;;;;;;;16.08;4.82;;;;;;;;;;4927594;28;20032;-80
2021/09/22 08:58:00;;;;;;;17.55;6.95;;;;;;;;;;4922762;28;20113;-77
2021/09/22 09:00:30;;;;;;;16.92;9.35;;;;;;;;;;4924271;28;20039;-78
2021/09/22 09:03:00;;;;;;;21.13;10.90;;;;;;;;;;4922282;28;20478;-77
2021/09/22 09:05:28;;;;;;;16.08;8.07;;;;;;;;;;4923921;28;20047;-78
2021/09/22 09:08:01;;;;;;;16.88;8.50;;;;;;;;;;4938137;28;20064;-79
2021/09/22 09:10:36;;;;;;;17.75;8.10;;;;;;;;;;4943572;28;20140;-77
2021/09/22 09:13:09;;;;;;;19.67;8.48;;;;;;;;;;4936803;28;20038;-78
2021/09/22 09:15:37;;;;;;;16.77;8.82;;;;;;;;;;4945181;28;20190;-78
2021/09/22 09:18:13;;;;;;;20.20;9.38;;;;;;;;;;4943782;28;20068;-77
2021/09/22 09:20:39;;;;;;;20.13;10.10;;;;;;;;;;4941865;28;20030;-78
2021/09/22 09:23:07;;;;;;;16.73;7.45;;;;;;;;;;4941698;28;20038;-78
2021/09/22 09:25:43;;;;;;;15.30;6.50;;;;;;;;;;4943521;28;20046;-78
2021/09/22 09:28:23;;;;;;;16.75;7.10;;;;;;;;;;4938301;28;20038;-77
2021/09/22 09:30:53;;;;;;;18.33;6.00;;;;;;;;;;4928938;28;20053;-78
2021/09/22 09:33:36;;;;;;;14.23;4.90;;;;;;;;;;4921936;28;21129;-77
2021/09/22 09:36:20;;;;;;;15.18;4.97;;;;;;;;;;4920606;28;20238;-78
2021/09/22 09:38:51;;;;;;;13.52;4.63;;;;;;;;;;4944589;28;20031;-78
2021/09/22 09:41:45;;;;;;;15.15;4.50;;;;;;;;;;4921414;28;20027;-78
2021/09/22 09:44:17;;;;;;;11.80;4.20;;;;;;;;;;4928881;28;20115;-76
2021/09/22 09:46:45;;;;;;;12.43;4.32;;;;;;;;;;4939137;28;20054;-77
2021/09/22 09:49:27;;;;;;;10.70;4.10;;;;;;;;;;4929458;28;20046;-77
2021/09/22 09:52:00;;;;;;;8.90;2.83;;;;;;;;;;4928528;28;20034;-78
2021/09/22 09:54:33;;;;;;;9.18;2.20;;;;;;;;;;4961105;28;20065;-78
2021/09/22 09:57:17;;;;;;;10.10;1.80;;;;;;;;;;4956576;28;20053;-78
2021/09/22 09:59:48;;;;;;;9.30;2.00;;;;;;;;;;4966064;28;20052;-78
2021/09/22 10:02:33;;;;;;;8.95;2.03;;;;;;;;;;4955727;28;20034;-78
2021/09/22 10:05:03;;;;;;;9.98;2.10;;;;;;;;;;4954118;28;20621;-77
2021/09/22 10:07:34;;;;;;;10.60;1.85;;;;;;;;;;4970935;28;20104;-78
2021/09/22 10:10:05;;;;;;;8.98;2.03;;;;;;;;;;4956724;28;20140;-78
2021/09/22 10:12:33;;;;;;;8.82;2.42;;;;;;;;;;4980626;28;20034;-78
2021/09/22 10:15:12;;;;;;;10.40;1.92;;;;;;;;;;4958693;28;20133;-78
2021/09/22 10:17:43;;;;;;;10.25;1.77;;;;;;;;;;4967323;28;20038;-77
2021/09/22 10:20:12;;;;;;;9.98;1.83;;;;;;;;;;4961076;28;20068;-78
2021/09/22 10:22:38;;;;;;;9.80;1.88;;;;;;;;;;4964084;28;20129;-78
2021/09/22 10:25:07;;;;;;;11.20;1.63;;;;;;;;;;4958406;28;20056;-78
2021/09/22 10:27:36;;;;;;;9.00;1.85;;;;;;;;;;4967631;28;20833;-78
2021/09/22 10:30:07;;;;;;;8.90;1.88;;;;;;;;;;4955755;28;20309;-78
2021/09/22 10:32:35;;;;;;;8.73;1.50;;;;;;;;;;4969803;28;20045;-78
2021/09/22 10:35:20;;;;;;;10.77;1.88;;;;;;;;;;4961896;28;20465;-79
2021/09/22 10:37:49;;;;;;;7.70;1.83;;;;;;;;;;4959436;28;20129;-78
2021/09/22 10:40:40;;;;;;;10.13;2.00;;;;;;;;;;4958460;28;20463;-78
2021/09/22 10:43:23;;;;;;;7.88;1.60;;;;;;;;;;4954897;28;20045;-78
2021/09/22 10:46:16;;;;;;;10.85;1.98;;;;;;;;;;4972389;28;20053;-77
2021/09/22 10:48:57;;;;;;;9.85;1.77;;;;;;;;;;4937200;28;20202;-78
2021/09/22 10:51:30;;;;;;;10.23;2.85;;;;;;;;;;4919869;28;20680;-78
2021/09/22 10:54:16;;;;;;;9.85;2.20;;;;;;;;;;4934745;28;20117;-78
2021/09/22 10:56:54;;;;;;;8.77;1.60;;;;;;;;;;4922466;28;20034;-78
2021/09/22 10:59:39;;;;;;;8.52;1.55;;;;;;;;;;4924927;28;23446;-78
2021/09/22 11:02:12;;;;;;;12.70;1.88;;;;;;;;;;4931893;28;20453;-78
2021/09/22 11:05:00;;;;;;;8.82;1.60;;;;;;;;;;4895678;28;20051;-78
2021/09/22 11:07:45;;;;;;;9.68;1.90;;;;;;;;;;4925699;28;20038;-79
2021/09/22 11:10:31;;;;;;;9.50;1.70;;;;;;;;;;4917208;28;20046;-79
2021/09/22 11:13:17;;;;;;;12.02;2.05;;;;;;;;;;4925263;28;20058;-79
2021/09/22 11:15:45;;;;;;;9.30;1.63;;;;;;;;;;4933010;28;21252;-79
2021/09/22 11:18:11;;;;;;;9.15;1.77;;;;;;;;;;4913773;28;20117;-80
2021/09/22 11:20:39;;;;;;;7.38;1.75;;;;;;;;;;4924429;28;20031;-78
2021/09/22 11:23:09;;;;;;;10.20;2.00;;;;;;;;;;4931590;28;20047;-78
2021/09/22 11:25:38;;;;;;;8.93;1.73;;;;;;;;;;4918817;28;20070;-79
2021/09/22 11:28:06;;;;;;;9.13;1.95;;;;;;;;;;4916433;28;20127;-77
2021/09/22 11:30:36;;;;;;;11.05;2.00;;;;;;;;;;4935087;28;20031;-76
2021/09/22 11:33:05;;;;;;;9.57;1.70;;;;;;;;;;4930611;28;20039;-77
2021/09/22 11:35:31;;;;;;;7.72;1.50;;;;;;;;;;4918087;28;20054;-77
2021/09/22 11:38:01;;;;;;;9.48;1.50;;;;;;;;;;4919260;28;20054;-77
2021/09/22 11:40:34;;;;;;;11.85;2.15;;;;;;;;;;4938736;28;20089;-78
2021/09/22 11:43:11;;;;;;;11.38;2.03;;;;;;;;;;4921141;28;20049;-77
2021/09/22 11:45:40;;;;;;;8.00;1.40;;;;;;;;;;4929095;28;20359;-78
2021/09/22 11:48:07;;;;;;;9.52;1.83;;;;;;;;;;4938888;28;20078;-78
2021/09/22 11:50:36;;;;;;;11.77;2.38;;;;;;;;;;4960401;28;20038;-78
2021/09/22 11:53:11;;;;;;;11.40;1.88;;;;;;;;;;4959713;28;20035;-77
2021/09/22 11:55:42;;;;;;;11.05;1.73;;;;;;;;;;4955817;28;20632;-78
2021/09/22 11:58:15;;;;;;;9.07;1.42;;;;;;;;;;4969614;28;20492;-78
2021/09/22 12:00:44;;;;;;;12.15;2.60;;;;;;;;;;4959314;28;20042;-79
2021/09/22 12:03:14;;;;;;;9.05;1.63;;;;;;;;;;4954091;28;20025;-78
2021/09/22 12:05:44;;;;;;;10.13;2.00;;;;;;;;;;4957640;28;20727;-79
2021/09/22 12:08:13;;;;;;;11.80;2.40;;;;;;;;;;4959943;28;20038;-78
2021/09/22 12:10:45;;;;;;;12.18;2.47;;;;;;;;;;4956099;28;20038;-79
2021/09/22 12:13:13;;;;;;;13.20;2.00;;;;;;;;;;4949977;28;20037;-79
2021/09/22 12:15:40;;;;;;;8.88;1.90;;;;;;;;;;4968055;28;20982;-80
2021/09/22 12:18:08;;;;;;;9.63;1.85;;;;;;;;;;4967621;28;20432;-80
2021/09/22 12:20:38;;;;;;;9.77;1.92;;;;;;;;;;4955029;28;20052;-79
2021/09/22 12:23:09;;;;;;;12.02;2.20;;;;;;;;;;4964024;28;20064;-79
2021/09/22 12:26:20;;;;;;;13.50;2.20;;;;;;;;;;4961968;28;21298;-78
2021/09/22 12:29:13;;;;;;;13.35;2.30;;;;;;;;;;4957082;28;20130;-77
2021/09/22 12:31:42;;;;;;;11.82;1.88;;;;;;;;;;4946933;28;20077;-79
2021/09/22 12:34:28;;;;;;;9.88;1.90;;;;;;;;;;4916537;28;20102;-77
2021/09/22 12:37:01;;;;;;;11.60;2.25;;;;;;;;;;4924149;28;20042;-78
2021/09/22 12:39:31;;;;;;;10.90;2.00;;;;;;;;;;4920749;28;20134;-79
2021/09/22 12:42:06;;;;;;;9.10;1.83;;;;;;;;;;4913476;28;20050;-78
2021/09/22 12:45:02;;;;;;;9.02;2.20;;;;;;;;;;4925425;28;20043;-78
2021/09/22 12:47:31;;;;;;;8.63;1.80;;;;;;;;;;4921715;28;20051;-77
2021/09/22 12:50:30;;;;;;;9.45;2.33;;;;;;;;;;4896698;29;20049;-78
2021/09/22 12:53:24;;;;;;;9.65;2.00;;;;;;;;;;4903183;29;20039;-77
2021/09/22 12:55:51;;;;;;;12.73;2.10;;;;;;;;;;4900718;29;20036;-80
2021/09/22 12:58:31;;;;;;;13.13;2.20;;;;;;;;;;4857134;29;20124;-80
2021/09/22 13:01:04;;;;;;;9.15;2.03;;;;;;;;;;4859834;29;20138;-79
2021/09/22 13:03:36;;;;;;;11.80;2.28;;;;;;;;;;4865245;29;20048;-78
2021/09/22 13:06:11;;;;;;;13.60;2.03;;;;;;;;;;4826976;29;20053;-78
2021/09/22 13:08:46;;;;;;;12.27;2.05;;;;;;;;;;4854952;29;20040;-76
2021/09/22 13:11:14;;;;;;;;;;;;;;;;;;4849145;29;20044;-77
2021/09/22 13:13:46;;;;;;;11.02;2.03;;;;;;;;;;4888865;29;19919;-78
2021/09/22 13:16:23;;;;;;;11.68;1.90;;;;;;;;;;4869729;29;20086;-78
2021/09/22 13:18:51;;;;;;;9.23;1.90;;;;;;;;;;4884444;29;20047;-79
2021/09/22 13:21:18;;;;;;;10.77;1.80;;;;;;;;;;4883245;29;20036;-77
2021/09/22 13:23:48;;;;;;;10.85;2.03;;;;;;;;;;4883404;29;20044;-79
2021/09/22 13:26:20;;;;;;;9.93;1.73;;;;;;;;;;4908339;28;20154;-79
2021/09/22 13:28:48;;;;;;;13.38;2.75;;;;;;;;;;4932850;28;20042;-78
2021/09/22 13:31:22;;;;;;;11.75;2.00;;;;;;;;;;4914455;28;20090;-78
2021/09/22 13:33:49;;;;;;;8.77;1.77;;;;;;;;;;4922381;28;20090;-78
2021/09/22 13:36:21;;;;;;;11.02;2.42;;;;;;;;;;4905732;28;20038;-78
2021/09/22 13:38:52;;;;;;;10.70;1.95;;;;;;;;;;4934429;28;20070;-78
2021/09/22 13:41:20;;;;;;;9.82;1.88;;;;;;;;;;4933867;28;23149;-78
2021/09/22 13:43:47;;;;;;;12.13;2.38;;;;;;;;;;4920601;28;20706;-79
2021/09/22 13:46:25;;;;;;;8.27;1.88;;;;;;;;;;4917138;28;20050;-78
2021/09/22 13:48:54;;;;;;;10.43;2.38;;;;;;;;;;4943231;28;20031;-78
2021/09/22 13:51:23;;;;;;;12.00;2.13;;;;;;;;;;4955041;28;22324;-77
2021/09/22 13:53:50;;;;;;;11.93;1.92;;;;;;;;;;4974328;28;20043;-77
2021/09/22 13:56:18;;;;;;;12.10;2.00;;;;;;;;;;4959042;28;20050;-77
2021/09/22 13:58:49;;;;;;;12.32;2.03;;;;;;;;;;4961105;28;20082;-77
2021/09/22 14:01:16;;;;;;;9.10;1.63;;;;;;;;;;4963111;28;20070;-78
2021/09/22 14:03:44;;;;;;;10.43;2.03;;;;;;;;;;4978763;28;20122;-78
2021/09/22 14:06:12;;;;;;;11.20;1.77;;;;;;;;;;4960453;28;20102;-79
2021/09/22 14:08:38;;;;;;;9.30;1.80;;;;;;;;;;4956168;28;20041;-79
2021/09/22 14:11:06;;;;;;;8.73;1.80;;;;;;;;;;4974143;28;20116;-79
2021/09/22 14:13:33;;;;;;;9.80;1.60;;;;;;;;;;4959979;28;20929;-77
2021/09/22 14:16:04;;;;;;;10.70;1.52;;;;;;;;;;4959987;28;20038;-77
2021/09/22 14:18:30;;;;;;;8.73;1.50;;;;;;;;;;4956078;28;20038;-76
2021/09/22 14:20:59;;;;;;;8.75;1.65;;;;;;;;;;4962267;28;20038;-77
2021/09/22 14:23:29;;;;;;;9.00;1.70;;;;;;;;;;4955720;28;20169;-77
2021/09/22 14:26:01;;;;;;;6.78;1.52;;;;;;;;;;4947767;28;20046;-77
2021/09/22 14:28:29;;;;;;;8.18;1.27;;;;;;;;;;4961499;28;20038;-79
2021/09/22 14:30:57;;;;;;;9.07;1.80;;;;;;;;;;4961132;28;20082;-78
2021/09/22 14:33:24;;;;;;;8.63;1.52;;;;;;;;;;4960278;28;20026;-77
2021/09/22 14:35:51;;;;;;;9.65;1.80;;;;;;;;;;4960066;28;20069;-78
2021/09/22 14:38:21;;;;;;;11.45;1.98;;;;;;;;;;4971185;28;20067;-77
2021/09/22 14:40:50;;;;;;;9.82;1.80;;;;;;;;;;4970091;28;20147;-77
2021/09/22 14:43:20;;;;;;;12.15;1.80;;;;;;;;;;4961161;28;20113;-76
2021/09/22 14:45:47;;;;;;;10.38;1.70;;;;;;;;;;4958632;28;20030;-77
2021/09/22 14:48:14;;;;;;;8.10;1.60;;;;;;;;;;4960722;28;20026;-77
2021/09/22 14:50:41;;;;;;;9.50;1.67;;;;;;;;;;4963101;28;20443;-78
2021/09/22 14:53:11;;;;;;;7.80;1.70;;;;;;;;;;4960448;28;20042;-77
2021/09/22 14:55:37;;;;;;;12.20;1.80;;;;;;;;;;4973841;28;20057;-79